Ridgebury Sally B — V7JQ9 — position and weather

sailwx.info

Track history (hours):
 
Tides and Currents Weather Stations Pressure Air Temp Water Temp Dewpoint Dewpoint Depression Visibility Wind Speed Wind Dir Waves Ship Positions

Ridgebury Sally B

Last reported at 2018-Mar-06 15:27 UTC. Time now 2018-Apr-23 07:26 UTC.
Position N 01°15' E 104°02'.
Warning: this ship's position is 47 days out of date.

Length 239 m; draft 10.8 m.

Type: Ship. MMSI: 538006092.

Date/timePositionNaut miles runAvg speedWind from/ knotsBaromVisibWave heightAir tempDewpointWater temp
2018-Mar-06 15:27N 01°15' E 104°02'4 9.3
2018-Mar-06 14:59N 01°14' E 103°57'5 9.5
2018-Mar-06 14:30N 01°12' E 103°53'3 6.9
2018-Mar-06 14:00N 01°12' E 103°50'1 2.8
2018-Mar-06 13:28N 01°13' E 103°49'0 0.1
2018-Mar-06 13:00N 01°13' E 103°49'0 0.2
2018-Mar-06 12:30N 01°13' E 103°49'0 0.1
2018-Mar-06 12:00N 01°13' E 103°49'2 3.3
2018-Mar-06 11:30N 01°13' E 103°47'3 6.7
2018-Mar-06 11:00N 01°14' E 103°44'0 0.2
2018-Mar-06 10:30N 01°14' E 103°44'0 0.0
2018-Mar-06 10:00N 01°14' E 103°44'0 0.0
2018-Mar-06 09:30N 01°14' E 103°44'0 0.0
2018-Mar-06 08:57N 01°14' E 103°44'0 0.0
2018-Mar-06 08:11N 01°14' E 103°44'0 0.0
2018-Mar-06 07:59N 01°14' E 103°44'0 0.0
2018-Mar-06 07:29N 01°14' E 103°44'0 0.0
2018-Mar-06 06:59N 01°14' E 103°44'0 0.0
2018-Mar-06 06:29N 01°14' E 103°44'0 0.0
2018-Mar-06 06:01N 01°14' E 103°44'0 0.0
2018-Mar-06 05:31N 01°14' E 103°44'0 0.0
2018-Mar-06 05:01N 01°14' E 103°44'0 0.0
2018-Mar-06 04:31N 01°14' E 103°44'0 0.0
2018-Mar-06 03:58N 01°14' E 103°44'0 0.0
2018-Mar-06 03:30N 01°14' E 103°44'0 0.0
2018-Mar-06 03:01N 01°14' E 103°44'0 0.0
2018-Mar-06 02:30N 01°14' E 103°44'0 0.0
2018-Mar-06 01:59N 01°14' E 103°44'0 0.0
2018-Mar-06 01:29N 01°14' E 103°44'0 0.0
2018-Mar-06 00:53N 01°14' E 103°44'0 0.0
2018-Mar-06 00:17N 01°14' E 103°44'0 0.0
2018-Mar-05 23:44N 01°14' E 103°44'0 0.0
2018-Mar-05 23:11N 01°14' E 103°44'0 0.0
2018-Mar-05 22:59N 01°14' E 103°44'0 0.0
2018-Mar-05 22:26N 01°14' E 103°44'0 0.0
2018-Mar-05 22:00N 01°14' E 103°44'0 0.0
2018-Mar-05 21:24N 01°14' E 103°44'0 0.0
2018-Mar-05 20:45N 01°14' E 103°44'0 0.0
2018-Mar-05 20:27N 01°14' E 103°44'0 0.0
2018-Mar-05 19:54N 01°14' E 103°44'0 0.0
2018-Mar-05 19:30N 01°14' E 103°44'0 0.0
2018-Mar-05 18:54N 01°14' E 103°44'0 0.0
2018-Mar-05 18:30N 01°14' E 103°44'0 0.0
2018-Mar-05 18:00N 01°14' E 103°44'0 0.0
2018-Mar-05 17:27N 01°14' E 103°44'0 0.0
2018-Mar-05 16:09N 01°14' E 103°44'0 0.0
2018-Mar-05 16:00N 01°14' E 103°44'0 0.0
2018-Mar-05 15:21N 01°14' E 103°44'0 0.0
2018-Mar-05 14:48N 01°14' E 103°44'0 0.0
2018-Mar-05 14:27N 01°14' E 103°44'0 0.0
2018-Mar-05 13:57N 01°14' E 103°44'0 0.0
2018-Mar-05 13:27N 01°14' E 103°44'0 0.0
2018-Mar-05 12:54N 01°14' E 103°44'0 0.0
2018-Mar-05 12:31N 01°14' E 103°44'0 0.0
2018-Mar-05 11:58N 01°14' E 103°44'0 0.0
2018-Mar-05 11:30N 01°14' E 103°44'0 0.0
2018-Mar-05 11:00N 01°14' E 103°44'0 0.0
2018-Mar-05 10:30N 01°14' E 103°44'0 0.0
2018-Mar-05 09:57N 01°14' E 103°44'0 0.0
2018-Mar-05 09:30N 01°14' E 103°44'0 0.0
2018-Mar-05 08:54N 01°14' E 103°44'0 0.0
2018-Mar-05 08:30N 01°14' E 103°44'0 0.0
2018-Mar-05 08:00N 01°14' E 103°44'0 0.0
2018-Mar-05 07:30N 01°14' E 103°44'0 0.0
2018-Mar-05 06:54N 01°14' E 103°44'0 0.0
2018-Mar-05 06:30N 01°14' E 103°44'0 0.0
2018-Mar-05 06:00N 01°14' E 103°44'0 0.0
2018-Mar-05 05:31N 01°14' E 103°44'0 0.0
2018-Mar-05 05:00N 01°14' E 103°44'0 0.0
2018-Mar-05 04:31N 01°14' E 103°44'0 0.0
2018-Mar-05 04:00N 01°14' E 103°44'0 0.0
2018-Mar-05 03:29N 01°14' E 103°44'0 0.0
2018-Mar-05 02:56N 01°14' E 103°44'0 0.0
2018-Mar-05 02:30N 01°14' E 103°44'0 0.0
2018-Mar-05 01:59N 01°14' E 103°44'0 0.0
2018-Mar-05 01:30N 01°14' E 103°44'0 0.0
2018-Mar-05 00:53N 01°14' E 103°44'0 0.0
2018-Mar-05 00:30N 01°14' E 103°44'0 0.0
2018-Mar-04 23:59N 01°14' E 103°44'0 0.0
2018-Mar-04 23:29N 01°14' E 103°44'0 0.0
2018-Mar-04 22:50N 01°14' E 103°44'0 0.0
2018-Mar-04 22:29N 01°14' E 103°44'0 0.0
2018-Mar-04 21:59N 01°14' E 103°44'0 0.0
2018-Mar-04 21:26N 01°14' E 103°44'0 0.0
2018-Mar-04 20:59N 01°14' E 103°44'0 0.0
2018-Mar-04 20:29N 01°14' E 103°44'0 0.0
2018-Mar-04 19:59N 01°14' E 103°44'0 0.0
2018-Mar-04 19:29N 01°14' E 103°44'0 0.0
2018-Mar-04 19:00N 01°14' E 103°44'0 0.0
2018-Mar-04 18:30N 01°14' E 103°44'0 0.0
2018-Mar-04 18:00N 01°14' E 103°44'0 0.0
2018-Mar-04 17:29N 01°14' E 103°44'0 0.0
2018-Mar-04 16:59N 01°14' E 103°44'0 0.0
2018-Mar-04 16:31N 01°14' E 103°44'0 0.1
2018-Mar-04 15:59N 01°14' E 103°44'1 1.6
2018-Mar-04 15:30N 01°15' E 103°44'2 3.4
2018-Mar-04 15:01N 01°16' E 103°45'3 6.7
2018-Mar-04 14:31N 01°14' E 103°47'4 7.8
2018-Mar-04 14:01N 01°12' E 103°51'4 7.1
2018-Mar-04 13:30N 01°14' E 103°54'2 4.5
2018-Mar-04 13:00N 01°16' E 103°56'0 0.1
2018-Mar-04 12:30N 01°16' E 103°56'0 0.0
2018-Mar-04 12:00N 01°16' E 103°56'0 0.0
2018-Mar-04 11:30N 01°16' E 103°56'0 0.1
2018-Mar-04 11:00N 01°16' E 103°56'0 0.0
2018-Mar-04 10:30N 01°16' E 103°56'0 0.0
2018-Mar-04 09:52N 01°16' E 103°56'0 0.1
2018-Mar-04 09:30N 01°16' E 103°56'0 0.1
2018-Mar-04 08:58N 01°16' E 103°56'0 0.1
2018-Mar-04 08:26N 01°16' E 103°56'0 0.1
2018-Mar-04 07:59N 01°16' E 103°56'0 0.1
2018-Mar-04 07:23N 01°16' E 103°55'0 0.2
2018-Mar-04 06:49N 01°16' E 103°55'0 0.1
2018-Mar-04 06:18N 01°16' E 103°55'0 0.0
2018-Mar-04 05:59N 01°16' E 103°55'0 0.1
2018-Mar-04 05:29N 01°16' E 103°55'0 0.1
2018-Mar-04 05:00N 01°16' E 103°55'0 0.1
2018-Mar-04 04:30N 01°16' E 103°55'0 0.0
2018-Mar-04 04:00N 01°16' E 103°55'0 0.0
2018-Mar-04 03:30N 01°16' E 103°55'0 0.0
2018-Mar-04 03:00N 01°16' E 103°55'0 0.1
2018-Mar-04 02:30N 01°15' E 103°55'0 0.0
2018-Mar-04 02:00N 01°15' E 103°55'0 0.1
2018-Mar-04 01:30N 01°15' E 103°55'0 0.0
2018-Mar-04 00:59N 01°15' E 103°55'0 0.0
2018-Mar-04 00:29N 01°15' E 103°55'0 0.0
2018-Mar-04 00:00N 01°15' E 103°55'0 0.1
2018-Mar-03 23:30N 01°15' E 103°56'0 0.3
2018-Mar-03 23:00N 01°15' E 103°56'0 0.1
2018-Mar-03 22:30N 01°16' E 103°56'0 0.0
2018-Mar-03 22:00N 01°16' E 103°56'0 0.0
2018-Mar-03 21:13N 01°16' E 103°56'0 0.0
2018-Mar-03 20:51N 01°16' E 103°56'0 0.1
2018-Mar-03 20:30N 01°16' E 103°56'0 0.1
2018-Mar-03 19:59N 01°15' E 103°56'0 0.1
2018-Mar-03 19:30N 01°15' E 103°56'0 0.1
2018-Mar-03 19:00N 01°15' E 103°56'0 0.1
2018-Mar-03 18:30N 01°15' E 103°56'0 0.1
2018-Mar-03 18:00N 01°15' E 103°55'0 0.0
2018-Mar-03 17:30N 01°15' E 103°55'0 0.0
2018-Mar-03 16:59N 01°15' E 103°55'0 0.0
2018-Mar-03 16:30N 01°15' E 103°55'0 0.0
2018-Mar-03 16:00N 01°15' E 103°55'0 0.1
2018-Mar-03 15:30N 01°15' E 103°55'0 0.1
2018-Mar-03 15:00N 01°15' E 103°55'0 0.0
2018-Mar-03 14:30N 01°15' E 103°55'0 0.3
2018-Mar-03 14:00N 01°15' E 103°56'1 1.4
2018-Mar-03 13:28N 01°15' E 103°56'2 3.2
2018-Mar-03 12:59N 01°14' E 103°57'2 3.4
2018-Mar-03 12:27N 01°13' E 103°55'3 7.6
2018-Mar-03 12:00N 01°12' E 103°53'610.3
2018-Mar-03 11:28N 01°09' E 103°48'510.8
2018-Mar-03 10:59N 01°06' E 103°44'5 9.6
2018-Mar-03 10:30N 01°03' E 103°40'4 7.5
2018-Mar-03 09:59N 01°04' E 103°36'4 8.3
2018-Mar-03 09:29N 01°06' E 103°32'4 8.6
2018-Mar-03 09:01N 01°08' E 103°29'4 8.4
2018-Mar-03 08:30N 01°11' E 103°25'5 8.4
2018-Mar-03 07:58N 01°13' E 103°22'  
Track history (hours):
 
Tides and Currents Weather Stations Pressure Air Temp Water Temp Dewpoint Dewpoint Depression Visibility Wind Speed Wind Dir Waves Ship Positions

Ridgebury Sally B

Last reported at 2018-Mar-06 15:27 UTC. Time now 2018-Apr-23 07:26 UTC.
Position N 01°15' E 104°02'.
Warning: this ship's position is 47 days out of date.

Length 239 m; draft 10.8 m.

Type: Ship. MMSI: 538006092.

Date/timePositionNaut miles runAvg speedWind from/ knotsBaromVisibWave heightAir tempDewpointWater temp
2018-Mar-06 15:27N 01°15' E 104°02'4 9.3
2018-Mar-06 14:59N 01°14' E 103°57'5 9.5
2018-Mar-06 14:30N 01°12' E 103°53'3 6.9
2018-Mar-06 14:00N 01°12' E 103°50'1 2.8
2018-Mar-06 13:28N 01°13' E 103°49'0 0.1
2018-Mar-06 13:00N 01°13' E 103°49'0 0.2
2018-Mar-06 12:30N 01°13' E 103°49'0 0.1
2018-Mar-06 12:00N 01°13' E 103°49'2 3.3
2018-Mar-06 11:30N 01°13' E 103°47'3 6.7
2018-Mar-06 11:00N 01°14' E 103°44'0 0.2
2018-Mar-06 10:30N 01°14' E 103°44'0 0.0
2018-Mar-06 10:00N 01°14' E 103°44'0 0.0
2018-Mar-06 09:30N 01°14' E 103°44'0 0.0
2018-Mar-06 08:57N 01°14' E 103°44'0 0.0
2018-Mar-06 08:11N 01°14' E 103°44'0 0.0
2018-Mar-06 07:59N 01°14' E 103°44'0 0.0
2018-Mar-06 07:29N 01°14' E 103°44'0 0.0
2018-Mar-06 06:59N 01°14' E 103°44'0 0.0
2018-Mar-06 06:29N 01°14' E 103°44'0 0.0
2018-Mar-06 06:01N 01°14' E 103°44'0 0.0
2018-Mar-06 05:31N 01°14' E 103°44'0 0.0
2018-Mar-06 05:01N 01°14' E 103°44'0 0.0
2018-Mar-06 04:31N 01°14' E 103°44'0 0.0
2018-Mar-06 03:58N 01°14' E 103°44'0 0.0
2018-Mar-06 03:30N 01°14' E 103°44'0 0.0
2018-Mar-06 03:01N 01°14' E 103°44'0 0.0
2018-Mar-06 02:30N 01°14' E 103°44'0 0.0
2018-Mar-06 01:59N 01°14' E 103°44'0 0.0
2018-Mar-06 01:29N 01°14' E 103°44'0 0.0
2018-Mar-06 00:53N 01°14' E 103°44'0 0.0
2018-Mar-06 00:17N 01°14' E 103°44'0 0.0
2018-Mar-05 23:44N 01°14' E 103°44'0 0.0
2018-Mar-05 23:11N 01°14' E 103°44'0 0.0
2018-Mar-05 22:59N 01°14' E 103°44'0 0.0
2018-Mar-05 22:26N 01°14' E 103°44'0 0.0
2018-Mar-05 22:00N 01°14' E 103°44'0 0.0
2018-Mar-05 21:24N 01°14' E 103°44'0 0.0
2018-Mar-05 20:45N 01°14' E 103°44'0 0.0
2018-Mar-05 20:27N 01°14' E 103°44'0 0.0
2018-Mar-05 19:54N 01°14' E 103°44'0 0.0
2018-Mar-05 19:30N 01°14' E 103°44'0 0.0
2018-Mar-05 18:54N 01°14' E 103°44'0 0.0
2018-Mar-05 18:30N 01°14' E 103°44'0 0.0
2018-Mar-05 18:00N 01°14' E 103°44'0 0.0
2018-Mar-05 17:27N 01°14' E 103°44'0 0.0
2018-Mar-05 16:09N 01°14' E 103°44'0 0.0
2018-Mar-05 16:00N 01°14' E 103°44'0 0.0
2018-Mar-05 15:21N 01°14' E 103°44'0 0.0
2018-Mar-05 14:48N 01°14' E 103°44'0 0.0
2018-Mar-05 14:27N 01°14' E 103°44'0 0.0
2018-Mar-05 13:57N 01°14' E 103°44'0 0.0
2018-Mar-05 13:27N 01°14' E 103°44'0 0.0
2018-Mar-05 12:54N 01°14' E 103°44'0 0.0
2018-Mar-05 12:31N 01°14' E 103°44'0 0.0
2018-Mar-05 11:58N 01°14' E 103°44'0 0.0
2018-Mar-05 11:30N 01°14' E 103°44'0 0.0
2018-Mar-05 11:00N 01°14' E 103°44'0 0.0
2018-Mar-05 10:30N 01°14' E 103°44'0 0.0
2018-Mar-05 09:57N 01°14' E 103°44'0 0.0
2018-Mar-05 09:30N 01°14' E 103°44'0 0.0
2018-Mar-05 08:54N 01°14' E 103°44'0 0.0
2018-Mar-05 08:30N 01°14' E 103°44'0 0.0
2018-Mar-05 08:00N 01°14' E 103°44'0 0.0
2018-Mar-05 07:30N 01°14' E 103°44'0 0.0
2018-Mar-05 06:54N 01°14' E 103°44'0 0.0
2018-Mar-05 06:30N 01°14' E 103°44'0 0.0
2018-Mar-05 06:00N 01°14' E 103°44'0 0.0
2018-Mar-05 05:31N 01°14' E 103°44'0 0.0
2018-Mar-05 05:00N 01°14' E 103°44'0 0.0
2018-Mar-05 04:31N 01°14' E 103°44'0 0.0
2018-Mar-05 04:00N 01°14' E 103°44'0 0.0
2018-Mar-05 03:29N 01°14' E 103°44'0 0.0
2018-Mar-05 02:56N 01°14' E 103°44'0 0.0
2018-Mar-05 02:30N 01°14' E 103°44'0 0.0
2018-Mar-05 01:59N 01°14' E 103°44'0 0.0
2018-Mar-05 01:30N 01°14' E 103°44'0 0.0
2018-Mar-05 00:53N 01°14' E 103°44'0 0.0
2018-Mar-05 00:30N 01°14' E 103°44'0 0.0
2018-Mar-04 23:59N 01°14' E 103°44'0 0.0
2018-Mar-04 23:29N 01°14' E 103°44'0 0.0
2018-Mar-04 22:50N 01°14' E 103°44'0 0.0
2018-Mar-04 22:29N 01°14' E 103°44'0 0.0
2018-Mar-04 21:59N 01°14' E 103°44'0 0.0
2018-Mar-04 21:26N 01°14' E 103°44'0 0.0
2018-Mar-04 20:59N 01°14' E 103°44'0 0.0
2018-Mar-04 20:29N 01°14' E 103°44'0 0.0
2018-Mar-04 19:59N 01°14' E 103°44'0 0.0
2018-Mar-04 19:29N 01°14' E 103°44'0 0.0
2018-Mar-04 19:00N 01°14' E 103°44'0 0.0
2018-Mar-04 18:30N 01°14' E 103°44'0 0.0
2018-Mar-04 18:00N 01°14' E 103°44'0 0.0
2018-Mar-04 17:29N 01°14' E 103°44'0 0.0
2018-Mar-04 16:59N 01°14' E 103°44'0 0.0
2018-Mar-04 16:31N 01°14' E 103°44'0 0.1
2018-Mar-04 15:59N 01°14' E 103°44'1 1.6
2018-Mar-04 15:30N 01°15' E 103°44'2 3.4
2018-Mar-04 15:01N 01°16' E 103°45'3 6.7
2018-Mar-04 14:31N 01°14' E 103°47'4 7.8
2018-Mar-04 14:01N 01°12' E 103°51'4 7.1
2018-Mar-04 13:30N 01°14' E 103°54'2 4.5
2018-Mar-04 13:00N 01°16' E 103°56'0 0.1
2018-Mar-04 12:30N 01°16' E 103°56'0 0.0
2018-Mar-04 12:00N 01°16' E 103°56'0 0.0
2018-Mar-04 11:30N 01°16' E 103°56'0 0.1
2018-Mar-04 11:00N 01°16' E 103°56'0 0.0
2018-Mar-04 10:30N 01°16' E 103°56'0 0.0
2018-Mar-04 09:52N 01°16' E 103°56'0 0.1
2018-Mar-04 09:30N 01°16' E 103°56'0 0.1
2018-Mar-04 08:58N 01°16' E 103°56'0 0.1
2018-Mar-04 08:26N 01°16' E 103°56'0 0.1
2018-Mar-04 07:59N 01°16' E 103°56'0 0.1
2018-Mar-04 07:23N 01°16' E 103°55'0 0.2
2018-Mar-04 06:49N 01°16' E 103°55'0 0.1
2018-Mar-04 06:18N 01°16' E 103°55'0 0.0
2018-Mar-04 05:59N 01°16' E 103°55'0 0.1
2018-Mar-04 05:29N 01°16' E 103°55'0 0.1
2018-Mar-04 05:00N 01°16' E 103°55'0 0.1
2018-Mar-04 04:30N 01°16' E 103°55'0 0.0
2018-Mar-04 04:00N 01°16' E 103°55'0 0.0
2018-Mar-04 03:30N 01°16' E 103°55'0 0.0
2018-Mar-04 03:00N 01°16' E 103°55'0 0.1
2018-Mar-04 02:30N 01°15' E 103°55'0 0.0
2018-Mar-04 02:00N 01°15' E 103°55'0 0.1
2018-Mar-04 01:30N 01°15' E 103°55'0 0.0
2018-Mar-04 00:59N 01°15' E 103°55'0 0.0
2018-Mar-04 00:29N 01°15' E 103°55'0 0.0
2018-Mar-04 00:00N 01°15' E 103°55'0 0.1
2018-Mar-03 23:30N 01°15' E 103°56'0 0.3
2018-Mar-03 23:00N 01°15' E 103°56'0 0.1
2018-Mar-03 22:30N 01°16' E 103°56'0 0.0
2018-Mar-03 22:00N 01°16' E 103°56'0 0.0
2018-Mar-03 21:13N 01°16' E 103°56'0 0.0
2018-Mar-03 20:51N 01°16' E 103°56'0 0.1
2018-Mar-03 20:30N 01°16' E 103°56'0 0.1
2018-Mar-03 19:59N 01°15' E 103°56'0 0.1
2018-Mar-03 19:30N 01°15' E 103°56'0 0.1
2018-Mar-03 19:00N 01°15' E 103°56'0 0.1
2018-Mar-03 18:30N 01°15' E 103°56'0 0.1
2018-Mar-03 18:00N 01°15' E 103°55'0 0.0
2018-Mar-03 17:30N 01°15' E 103°55'0 0.0
2018-Mar-03 16:59N 01°15' E 103°55'0 0.0
2018-Mar-03 16:30N 01°15' E 103°55'0 0.0
2018-Mar-03 16:00N 01°15' E 103°55'0 0.1
2018-Mar-03 15:30N 01°15' E 103°55'0 0.1
2018-Mar-03 15:00N 01°15' E 103°55'0 0.0
2018-Mar-03 14:30N 01°15' E 103°55'0 0.3
2018-Mar-03 14:00N 01°15' E 103°56'1 1.4
2018-Mar-03 13:28N 01°15' E 103°56'2 3.2
2018-Mar-03 12:59N 01°14' E 103°57'2 3.4
2018-Mar-03 12:27N 01°13' E 103°55'3 7.6
2018-Mar-03 12:00N 01°12' E 103°53'610.3
2018-Mar-03 11:28N 01°09' E 103°48'510.8
2018-Mar-03 10:59N 01°06' E 103°44'5 9.6
2018-Mar-03 10:30N 01°03' E 103°40'4 7.5
2018-Mar-03 09:59N 01°04' E 103°36'4 8.3
2018-Mar-03 09:29N 01°06' E 103°32'4 8.6
2018-Mar-03 09:01N 01°08' E 103°29'4 8.4
2018-Mar-03 08:30N 01°11' E 103°25'5 8.4
2018-Mar-03 07:58N 01°13' E 103°22'  

Dump ship's entire track history